sensor_id;sensor_type;location;lat;lon;timestamp;pressure;altitude;pressure_sealevel;temperature;humidity
68855;BME280;55859;55.710;12.464;2022-07-29T00:14:01;102094.06;;;11.41;94.51
68855;BME280;55859;55.710;12.464;2022-07-29T00:16:27;102090.84;;;11.38;95.56
68855;BME280;55859;55.710;12.464;2022-07-29T00:18:52;102087.63;;;11.34;96.33
68855;BME280;55859;55.710;12.464;2022-07-29T00:21:17;102090.38;;;11.33;95.73
68855;BME280;55859;55.710;12.464;2022-07-29T00:23:43;102088.81;;;11.30;95.68
68855;BME280;55859;55.710;12.464;2022-07-29T00:26:08;102084.53;;;11.29;95.30
68855;BME280;55859;55.710;12.464;2022-07-29T00:28:33;102087.34;;;11.26;95.52
68855;BME280;55859;55.710;12.464;2022-07-29T00:30:59;102085.94;;;11.22;95.65
68855;BME280;55859;55.710;12.464;2022-07-29T00:33:24;102088.91;;;11.18;95.80
68855;BME280;55859;55.710;12.464;2022-07-29T00:35:50;102089.13;;;11.15;95.29
68855;BME280;55859;55.710;12.464;2022-07-29T00:38:17;102099.13;;;11.10;95.77
68855;BME280;55859;55.710;12.464;2022-07-29T00:40:43;102092.31;;;11.07;96.06
68855;BME280;55859;55.710;12.464;2022-07-29T00:43:11;102093.28;;;11.06;96.40
68855;BME280;55859;55.710;12.464;2022-07-29T00:45:37;102092.56;;;11.04;95.59
68855;BME280;55859;55.710;12.464;2022-07-29T00:48:03;102084.56;;;11.06;96.71
68855;BME280;55859;55.710;12.464;2022-07-29T00:50:30;102091.84;;;11.13;98.46
68855;BME280;55859;55.710;12.464;2022-07-29T00:52:56;102090.06;;;11.14;99.71
68855;BME280;55859;55.710;12.464;2022-07-29T00:55:21;102093.53;;;11.14;99.33
68855;BME280;55859;55.710;12.464;2022-07-29T00:57:47;102091.38;;;11.19;99.96
68855;BME280;55859;55.710;12.464;2022-07-29T01:00:18;102096.81;;;11.40;100.00
68855;BME280;55859;55.710;12.464;2022-07-29T01:02:45;102095.88;;;11.52;100.00
68855;BME280;55859;55.710;12.464;2022-07-29T01:05:13;102095.03;;;11.51;100.00
68855;BME280;55859;55.710;12.464;2022-07-29T01:07:39;102087.44;;;11.60;100.00
68855;BME280;55859;55.710;12.464;2022-07-29T01:10:07;102093.88;;;11.67;100.00
68855;BME280;55859;55.710;12.464;2022-07-29T01:12:35;102087.47;;;11.82;100.00
68855;BME280;55859;55.710;12.464;2022-07-29T01:15:03;102087.69;;;11.90;100.00
68855;BME280;55859;55.710;12.464;2022-07-29T01:17:32;102093.91;;;12.00;100.00
68855;BME280;55859;55.710;12.464;2022-07-29T01:20:12;102099.66;;;12.05;100.00
68855;BME280;55859;55.710;12.464;2022-07-29T01:31:16;102100.94;;;12.22;100.00
68855;BME280;55859;55.710;12.464;2022-07-29T01:33:45;102092.34;;;12.31;100.00
68855;BME280;55859;55.710;12.464;2022-07-29T01:36:37;102093.53;;;12.27;100.00
68855;BME280;55859;55.710;12.464;2022-07-29T01:39:11;102093.41;;;12.28;100.00
68855;BME280;55859;55.710;12.464;2022-07-29T01:41:46;102093.41;;;12.28;100.00
68855;BME280;55859;55.710;12.464;2022-07-29T01:44:18;102101.78;;;12.22;100.00
68855;BME280;55859;55.710;12.464;2022-07-29T01:47:10;102095.00;;;12.09;100.00
68855;BME280;55859;55.710;12.464;2022-07-29T01:49:40;102106.59;;;12.06;100.00
68855;BME280;55859;55.710;12.464;2022-07-29T01:52:15;102090.94;;;11.93;100.00
68855;BME280;55859;55.710;12.464;2022-07-29T01:54:43;102097.00;;;11.83;99.83
68855;BME280;55859;55.710;12.464;2022-07-29T01:57:15;102100.22;;;11.75;98.45
68855;BME280;55859;55.710;12.464;2022-07-29T01:59:46;102098.81;;;11.71;97.95
68855;BME280;55859;55.710;12.464;2022-07-29T02:02:15;102088.72;;;11.65;97.41
68855;BME280;55859;55.710;12.464;2022-07-29T02:04:43;102094.59;;;11.69;100.00
68855;BME280;55859;55.710;12.464;2022-07-29T02:07:13;102092.78;;;11.58;100.00
68855;BME280;55859;55.710;12.464;2022-07-29T02:09:41;102090.53;;;11.53;99.57
68855;BME280;55859;55.710;12.464;2022-07-29T02:12:07;102088.34;;;11.47;99.67
68855;BME280;55859;55.710;12.464;2022-07-29T02:14:38;102092.16;;;11.43;99.23
68855;BME280;55859;55.710;12.464;2022-07-29T02:17:05;102090.75;;;11.39;99.10
68855;BME280;55859;55.710;12.464;2022-07-29T02:19:32;102092.78;;;11.36;99.41
68855;BME280;55859;55.710;12.464;2022-07-29T02:21:58;102092.41;;;11.29;99.43
68855;BME280;55859;55.710;12.464;2022-07-29T02:24:25;102083.09;;;11.25;98.65
68855;BME280;55859;55.710;12.464;2022-07-29T02:26:53;102083.19;;;11.24;99.47
68855;BME280;55859;55.710;12.464;2022-07-29T02:29:25;102085.19;;;11.20;98.94
68855;BME280;55859;55.710;12.464;2022-07-29T02:31:52;102092.47;;;11.17;99.15
68855;BME280;55859;55.710;12.464;2022-07-29T02:34:19;102092.47;;;11.17;98.15
68855;BME280;55859;55.710;12.464;2022-07-29T02:36:46;102093.41;;;11.16;98.04
68855;BME280;55859;55.710;12.464;2022-07-29T02:39:13;102091.75;;;11.15;98.32
68855;BME280;55859;55.710;12.464;2022-07-29T02:41:55;102093.78;;;11.11;98.66
68855;BME280;55859;55.710;12.464;2022-07-29T02:44:24;102098.28;;;11.09;98.81
68855;BME280;55859;55.710;12.464;2022-07-29T02:46:55;102094.22;;;11.05;99.00
68855;BME280;55859;55.710;12.464;2022-07-29T02:51:53;102096.44;;;10.98;99.30
68855;BME280;55859;55.710;12.464;2022-07-29T02:57:19;102103.84;;;10.93;98.25
68855;BME280;55859;55.710;12.464;2022-07-29T02:59:48;102104.88;;;10.91;98.21
68855;BME280;55859;55.710;12.464;2022-07-29T03:02:15;102105.00;;;10.89;97.91
68855;BME280;55859;55.710;12.464;2022-07-29T03:04:43;102104.63;;;10.83;99.26
68855;BME280;55859;55.710;12.464;2022-07-29T03:07:11;102106.75;;;10.78;99.30
68855;BME280;55859;55.710;12.464;2022-07-29T03:09:40;102108.66;;;10.76;99.21
68855;BME280;55859;55.710;12.464;2022-07-29T03:12:06;102110.31;;;10.77;99.22
68855;BME280;55859;55.710;12.464;2022-07-29T03:14:32;102107.81;;;10.75;98.68
68855;BME280;55859;55.710;12.464;2022-07-29T03:16:59;102100.66;;;10.77;98.95
68855;BME280;55859;55.710;12.464;2022-07-29T03:19:26;102099.72;;;10.78;98.90
68855;BME280;55859;55.710;12.464;2022-07-29T03:21:52;102101.50;;;10.78;98.23
68855;BME280;55859;55.710;12.464;2022-07-29T03:24:25;102096.03;;;10.81;98.06
68855;BME280;55859;55.710;12.464;2022-07-29T03:26:50;102093.31;;;10.82;98.38
68855;BME280;55859;55.710;12.464;2022-07-29T03:29:16;102094.16;;;10.83;98.63
68855;BME280;55859;55.710;12.464;2022-07-29T03:31:41;102101.16;;;10.82;98.62
68855;BME280;55859;55.710;12.464;2022-07-29T03:34:06;102101.16;;;10.82;98.77
68855;BME280;55859;55.710;12.464;2022-07-29T03:36:32;102108.19;;;10.82;98.79
68855;BME280;55859;55.710;12.464;2022-07-29T03:38:57;102107.34;;;10.81;99.00
68855;BME280;55859;55.710;12.464;2022-07-29T03:41:24;102110.09;;;10.80;99.24
68855;BME280;55859;55.710;12.464;2022-07-29T03:43:51;102104.13;;;10.78;98.40
68855;BME280;55859;55.710;12.464;2022-07-29T03:46:17;102111.03;;;10.79;98.31
68855;BME280;55859;55.710;12.464;2022-07-29T03:48:46;102110.91;;;10.80;98.17
68855;BME280;55859;55.710;12.464;2022-07-29T03:51:13;102109.97;;;10.81;98.97
68855;BME280;55859;55.710;12.464;2022-07-29T03:53:40;102106.28;;;10.84;99.61
68855;BME280;55859;55.710;12.464;2022-07-29T03:56:06;102102.63;;;10.86;100.00
68855;BME280;55859;55.710;12.464;2022-07-29T03:58:32;102106.81;;;10.89;99.24
68855;BME280;55859;55.710;12.464;2022-07-29T04:00:58;102105.50;;;10.94;99.46
68855;BME280;55859;55.710;12.464;2022-07-29T04:03:24;102104.22;;;11.00;99.33
68855;BME280;55859;55.710;12.464;2022-07-29T04:06:01;102105.31;;;11.09;100.00
68855;BME280;55859;55.710;12.464;2022-07-29T04:08:26;102104.03;;;11.14;100.00
68855;BME280;55859;55.710;12.464;2022-07-29T04:10:52;102096.88;;;11.16;99.35
68855;BME280;55859;55.710;12.464;2022-07-29T04:13:19;102098.09;;;11.23;99.43
68855;BME280;55859;55.710;12.464;2022-07-29T04:15:45;102101.34;;;11.38;100.00
68855;BME280;55859;55.710;12.464;2022-07-29T04:18:10;102099.84;;;11.46;100.00
68855;BME280;55859;55.710;12.464;2022-07-29T04:20:35;102099.00;;;11.57;100.00
68855;BME280;55859;55.710;12.464;2022-07-29T04:23:00;102100.31;;;11.63;100.00
68855;BME280;55859;55.710;12.464;2022-07-29T04:25:26;102105.72;;;11.72;100.00
68855;BME280;55859;55.710;12.464;2022-07-29T04:27:51;102100.84;;;11.90;100.00
68855;BME280;55859;55.710;12.464;2022-07-29T04:30:25;102111.34;;;12.23;100.00
68855;BME280;55859;55.710;12.464;2022-07-29T04:32:51;102102.94;;;12.40;100.00
68855;BME280;55859;55.710;12.464;2022-07-29T04:35:17;102105.38;;;12.64;100.00
68855;BME280;55859;55.710;12.464;2022-07-29T04:37:42;102099.47;;;12.83;100.00
68855;BME280;55859;55.710;12.464;2022-07-29T04:40:09;102097.69;;;13.15;100.00
68855;BME280;55859;55.710;12.464;2022-07-29T04:42:34;102105.00;;;13.32;100.00
68855;BME280;55859;55.710;12.464;2022-07-29T04:44:59;102101.41;;;13.54;100.00
68855;BME280;55859;55.710;12.464;2022-07-29T04:47:25;102102.72;;;13.69;100.00
68855;BME280;55859;55.710;12.464;2022-07-29T04:49:50;102100.31;;;13.87;100.00
68855;BME280;55859;55.710;12.464;2022-07-29T04:52:15;102106.78;;;14.04;100.00
68855;BME280;55859;55.710;12.464;2022-07-29T04:54:41;102100.56;;;14.14;100.00
68855;BME280;55859;55.710;12.464;2022-07-29T04:57:06;102105.47;;;14.28;100.00
68855;BME280;55859;55.710;12.464;2022-07-29T04:59:31;102098.56;;;14.37;100.00
68855;BME280;55859;55.710;12.464;2022-07-29T05:01:56;102105.53;;;14.47;100.00
68855;BME280;55859;55.710;12.464;2022-07-29T05:04:22;102110.81;;;14.57;99.93
68855;BME280;55859;55.710;12.464;2022-07-29T05:06:48;102101.66;;;14.61;99.74
68855;BME280;55859;55.710;12.464;2022-07-29T05:09:13;102105.97;;;14.72;98.87
68855;BME280;55859;55.710;12.464;2022-07-29T05:11:39;102101.81;;;14.79;98.58
68855;BME280;55859;55.710;12.464;2022-07-29T05:14:04;102111.28;;;14.91;97.62
68855;BME280;55859;55.710;12.464;2022-07-29T05:16:30;102107.78;;;15.00;96.30
68855;BME280;55859;55.710;12.464;2022-07-29T05:18:55;102101.69;;;15.09;96.36
68855;BME280;55859;55.710;12.464;2022-07-29T05:21:20;102106.97;;;15.19;96.45
68855;BME280;55859;55.710;12.464;2022-07-29T05:23:45;102101.53;;;15.30;94.25
68855;BME280;55859;55.710;12.464;2022-07-29T05:26:11;102099.41;;;15.43;94.24
68855;BME280;55859;55.710;12.464;2022-07-29T05:28:37;102102.22;;;15.51;92.58
68855;BME280;55859;55.710;12.464;2022-07-29T05:31:02;102104.13;;;15.59;92.49
68855;BME280;55859;55.710;12.464;2022-07-29T05:33:28;102108.97;;;15.63;90.29
68855;BME280;55859;55.710;12.464;2022-07-29T05:35:53;102107.28;;;15.72;86.81
68855;BME280;55859;55.710;12.464;2022-07-29T05:38:19;102105.19;;;15.75;84.29
68855;BME280;55859;55.710;12.464;2022-07-29T05:40:44;102107.66;;;15.86;84.24
68855;BME280;55859;55.710;12.464;2022-07-29T05:43:09;102100.84;;;15.84;82.60
68855;BME280;55859;55.710;12.464;2022-07-29T05:45:34;102102.50;;;15.85;82.18
68855;BME280;55859;55.710;12.464;2022-07-29T05:48:00;102096.94;;;15.88;81.94
68855;BME280;55859;55.710;12.464;2022-07-29T05:50:25;102101.78;;;15.92;83.47
68855;BME280;55859;55.710;12.464;2022-07-29T05:52:50;102100.81;;;15.93;82.13
68855;BME280;55859;55.710;12.464;2022-07-29T05:55:16;102109.13;;;15.98;81.82
68855;BME280;55859;55.710;12.464;2022-07-29T05:57:41;102102.44;;;16.04;81.33
68855;BME280;55859;55.710;12.464;2022-07-29T06:00:09;102104.63;;;16.09;79.54
68855;BME280;55859;55.710;12.464;2022-07-29T06:02:34;102098.06;;;16.13;80.40
68855;BME280;55859;55.710;12.464;2022-07-29T06:04:59;102095.53;;;16.21;79.69
68855;BME280;55859;55.710;12.464;2022-07-29T06:07:25;102103.69;;;16.27;79.21
68855;BME280;55859;55.710;12.464;2022-07-29T06:09:50;102105.22;;;16.30;76.10
68855;BME280;55859;55.710;12.464;2022-07-29T06:12:15;102108.09;;;16.36;76.64
68855;BME280;55859;55.710;12.464;2022-07-29T06:14:41;102107.53;;;16.42;73.97
68855;BME280;55859;55.710;12.464;2022-07-29T06:17:06;102106.25;;;16.46;73.28
68855;BME280;55859;55.710;12.464;2022-07-29T06:19:34;102102.72;;;16.56;72.71
68855;BME280;55859;55.710;12.464;2022-07-29T06:22:00;102112.03;;;16.60;72.94
68855;BME280;55859;55.710;12.464;2022-07-29T06:24:25;102108.47;;;16.69;72.92
68855;BME280;55859;55.710;12.464;2022-07-29T06:26:50;102110.38;;;16.76;72.28
68855;BME280;55859;55.710;12.464;2022-07-29T06:29:16;102110.50;;;16.75;71.84
68855;BME280;55859;55.710;12.464;2022-07-29T06:31:42;102112.94;;;16.86;71.62
68855;BME280;55859;55.710;12.464;2022-07-29T06:34:07;102119.28;;;16.93;70.88
68855;BME280;55859;55.710;12.464;2022-07-29T06:36:37;102113.63;;;17.06;71.07
68855;BME280;55859;55.710;12.464;2022-07-29T06:39:06;102108.22;;;17.15;72.16
68855;BME280;55859;55.710;12.464;2022-07-29T06:41:31;102113.13;;;17.28;72.24
68855;BME280;55859;55.710;12.464;2022-07-29T06:43:58;102116.28;;;17.31;71.31
68855;BME280;55859;55.710;12.464;2022-07-29T06:46:24;102116.38;;;17.39;72.00
68855;BME280;55859;55.710;12.464;2022-07-29T06:48:50;102118.69;;;17.42;71.09
68855;BME280;55859;55.710;12.464;2022-07-29T06:51:17;102129.22;;;17.52;70.22
68855;BME280;55859;55.710;12.464;2022-07-29T06:53:42;102121.28;;;17.52;68.86
68855;BME280;55859;55.710;12.464;2022-07-29T06:56:07;102126.19;;;17.65;70.20
68855;BME280;55859;55.710;12.464;2022-07-29T06:58:38;102115.91;;;17.70;68.84
68855;BME280;55859;55.710;12.464;2022-07-29T07:01:05;102127.72;;;17.75;69.41
68855;BME280;55859;55.710;12.464;2022-07-29T07:03:31;102125.94;;;17.84;68.12
68855;BME280;55859;55.710;12.464;2022-07-29T07:05:57;102126.44;;;17.79;67.20
68855;BME280;55859;55.710;12.464;2022-07-29T07:08:22;102130.63;;;17.90;67.12
68855;BME280;55859;55.710;12.464;2022-07-29T07:10:49;102132.66;;;17.96;67.61
68855;BME280;55859;55.710;12.464;2022-07-29T07:13:14;102132.19;;;18.09;68.13
68855;BME280;55859;55.710;12.464;2022-07-29T07:15:40;102131.81;;;18.29;67.44
68855;BME280;55859;55.710;12.464;2022-07-29T07:18:06;102124.47;;;18.23;66.83
68855;BME280;55859;55.710;12.464;2022-07-29T07:20:32;102136.16;;;18.38;67.83
68855;BME280;55859;55.710;12.464;2022-07-29T07:22:58;102129.19;;;18.45;67.28
68855;BME280;55859;55.710;12.464;2022-07-29T07:25:23;102119.22;;;18.47;66.74
68855;BME280;55859;55.710;12.464;2022-07-29T07:27:49;102126.09;;;18.58;66.25
68855;BME280;55859;55.710;12.464;2022-07-29T07:30:14;102124.81;;;18.70;65.26
68855;BME280;55859;55.710;12.464;2022-07-29T07:32:39;102125.66;;;18.71;65.76
68855;BME280;55859;55.710;12.464;2022-07-29T07:35:07;102126.63;;;18.70;65.79
68855;BME280;55859;55.710;12.464;2022-07-29T07:37:33;102124.63;;;18.72;64.57
68855;BME280;55859;55.710;12.464;2022-07-29T07:39:58;102140.09;;;18.84;64.37
68855;BME280;55859;55.710;12.464;2022-07-29T07:42:24;102133.97;;;18.84;64.16
68855;BME280;55859;55.710;12.464;2022-07-29T07:44:49;102120.34;;;18.95;65.06
68855;BME280;55859;55.710;12.464;2022-07-29T07:47:15;102133.63;;;19.11;64.76
68855;BME280;55859;55.710;12.464;2022-07-29T07:49:46;102139.94;;;19.18;64.60
68855;BME280;55859;55.710;12.464;2022-07-29T07:52:11;102126.16;;;19.23;63.56
68855;BME280;55859;55.710;12.464;2022-07-29T07:54:37;102130.50;;;19.24;62.39
68855;BME280;55859;55.710;12.464;2022-07-29T07:57:02;102134.13;;;19.39;63.78
68855;BME280;55859;55.710;12.464;2022-07-29T07:59:27;102137.66;;;19.31;63.16
68855;BME280;55859;55.710;12.464;2022-07-29T08:01:54;102132.31;;;19.39;63.12
68855;BME280;55859;55.710;12.464;2022-07-29T08:04:19;102134.16;;;19.47;63.04
68855;BME280;55859;55.710;12.464;2022-07-29T08:06:44;102132.78;;;19.75;62.77
68855;BME280;55859;55.710;12.464;2022-07-29T08:09:10;102145.56;;;19.80;62.34
68855;BME280;55859;55.710;12.464;2022-07-29T08:11:35;102142.09;;;19.71;62.25
68855;BME280;55859;55.710;12.464;2022-07-29T08:14:00;102136.81;;;19.55;60.52
68855;BME280;55859;55.710;12.464;2022-07-29T08:16:26;102142.31;;;19.46;61.64
68855;BME280;55859;55.710;12.464;2022-07-29T08:18:52;102141.81;;;19.42;62.11
68855;BME280;55859;55.710;12.464;2022-07-29T08:21:22;102139.97;;;19.42;62.23
68855;BME280;55859;55.710;12.464;2022-07-29T08:23:48;102144.94;;;19.37;63.89
68855;BME280;55859;55.710;12.464;2022-07-29T08:26:41;102148.09;;;19.57;63.45
68855;BME280;55859;55.710;12.464;2022-07-29T08:29:06;102154.59;;;19.55;62.52
68855;BME280;55859;55.710;12.464;2022-07-29T08:31:32;102145.44;;;19.57;64.01
68855;BME280;55859;55.710;12.464;2022-07-29T08:33:57;102146.91;;;19.76;66.21
68855;BME280;55859;55.710;12.464;2022-07-29T08:36:25;102148.03;;;19.89;65.54
68855;BME280;55859;55.710;12.464;2022-07-29T08:38:50;102149.34;;;19.93;62.71
68855;BME280;55859;55.710;12.464;2022-07-29T08:41:17;102147.69;;;20.01;64.17
68855;BME280;55859;55.710;12.464;2022-07-29T08:43:44;102152.88;;;19.86;65.95
68855;BME280;55859;55.710;12.464;2022-07-29T08:46:10;102151.41;;;19.75;60.77
68855;BME280;55859;55.710;12.464;2022-07-29T08:48:36;102149.56;;;19.84;61.40
68855;BME280;55859;55.710;12.464;2022-07-29T08:51:02;102149.56;;;19.84;62.22
68855;BME280;55859;55.710;12.464;2022-07-29T08:53:28;102147.38;;;19.87;62.00
68855;BME280;55859;55.710;12.464;2022-07-29T08:55:54;102136.84;;;20.02;61.08
68855;BME280;55859;55.710;12.464;2022-07-29T08:58:20;102144.19;;;20.00;57.75
68855;BME280;55859;55.710;12.464;2022-07-29T09:00:50;102137.31;;;20.06;57.90
68855;BME280;55859;55.710;12.464;2022-07-29T09:03:20;102141.44;;;20.16;56.86
68855;BME280;55859;55.710;12.464;2022-07-29T09:05:48;102140.75;;;20.30;58.40
68855;BME280;55859;55.710;12.464;2022-07-29T09:08:14;102148.44;;;20.56;57.03
68855;BME280;55859;55.710;12.464;2022-07-29T09:10:40;102143.94;;;20.57;55.80
68855;BME280;55859;55.710;12.464;2022-07-29T09:13:05;102149.06;;;20.66;55.69
68855;BME280;55859;55.710;12.464;2022-07-29T09:15:31;102148.00;;;20.75;56.69
68855;BME280;55859;55.710;12.464;2022-07-29T09:17:57;102146.06;;;20.92;53.01
68855;BME280;55859;55.710;12.464;2022-07-29T09:20:23;102151.97;;;21.10;52.05
68855;BME280;55859;55.710;12.464;2022-07-29T09:22:51;102148.50;;;21.24;52.04
68855;BME280;55859;55.710;12.464;2022-07-29T09:25:38;102146.00;;;21.23;51.49
68855;BME280;55859;55.710;12.464;2022-07-29T09:28:15;102142.41;;;21.53;50.47
68855;BME280;55859;55.710;12.464;2022-07-29T09:30:56;102147.19;;;21.58;51.04
68855;BME280;55859;55.710;12.464;2022-07-29T09:33:23;102146.38;;;21.20;47.00
68855;BME280;55859;55.710;12.464;2022-07-29T09:36:05;102140.78;;;21.29;49.08
68855;BME280;55859;55.710;12.464;2022-07-29T09:38:32;102147.28;;;21.64;50.46
68855;BME280;55859;55.710;12.464;2022-07-29T09:40:59;102135.63;;;21.80;48.58
68855;BME280;55859;55.710;12.464;2022-07-29T09:43:25;102141.25;;;22.00;49.28
68855;BME280;55859;55.710;12.464;2022-07-29T09:45:51;102135.72;;;22.16;49.14
68855;BME280;55859;55.710;12.464;2022-07-29T09:48:22;102142.97;;;22.36;47.77
68855;BME280;55859;55.710;12.464;2022-07-29T09:50:48;102147.09;;;22.39;48.91
68855;BME280;55859;55.710;12.464;2022-07-29T09:53:32;102145.28;;;22.25;48.84
68855;BME280;55859;55.710;12.464;2022-07-29T09:55:58;102136.06;;;22.27;43.71
68855;BME280;55859;55.710;12.464;2022-07-29T09:58:23;102145.56;;;22.30;47.69
68855;BME280;55859;55.710;12.464;2022-07-29T10:00:50;102154.44;;;22.16;48.99
68855;BME280;55859;55.710;12.464;2022-07-29T10:03:16;102145.66;;;21.63;48.26
68855;BME280;55859;55.710;12.464;2022-07-29T10:05:43;102159.69;;;21.42;48.64
68855;BME280;55859;55.710;12.464;2022-07-29T10:08:10;102148.56;;;21.54;48.38
68855;BME280;55859;55.710;12.464;2022-07-29T10:10:39;102147.44;;;21.48;49.51
68855;BME280;55859;55.710;12.464;2022-07-29T10:13:13;102143.28;;;21.31;51.10
68855;BME280;55859;55.710;12.464;2022-07-29T10:15:40;102142.69;;;21.58;55.45
68855;BME280;55859;55.710;12.464;2022-07-29T10:18:09;102134.94;;;21.49;52.14
68855;BME280;55859;55.710;12.464;2022-07-29T10:20:35;102137.16;;;21.45;51.23
68855;BME280;55859;55.710;12.464;2022-07-29T10:23:00;102142.88;;;21.57;55.22
68855;BME280;55859;55.710;12.464;2022-07-29T10:25:26;102139.16;;;21.43;55.01
68855;BME280;55859;55.710;12.464;2022-07-29T10:27:52;102128.56;;;21.35;55.95
68855;BME280;55859;55.710;12.464;2022-07-29T10:30:20;102146.59;;;21.33;55.89
68855;BME280;55859;55.710;12.464;2022-07-29T10:36:11;102132.41;;;21.32;53.01
68855;BME280;55859;55.710;12.464;2022-07-29T10:44:21;102147.09;;;21.14;47.84
68855;BME280;55859;55.710;12.464;2022-07-29T10:46:47;102131.72;;;21.38;49.23
68855;BME280;55859;55.710;12.464;2022-07-29T10:49:18;102131.25;;;21.64;50.10
68855;BME280;55859;55.710;12.464;2022-07-29T10:59:45;102125.03;;;21.86;46.84
68855;BME280;55859;55.710;12.464;2022-07-29T11:04:58;102122.53;;;22.29;47.40
68855;BME280;55859;55.710;12.464;2022-07-29T11:07:25;102130.06;;;22.40;47.65
68855;BME280;55859;55.710;12.464;2022-07-29T11:15:08;102112.56;;;22.73;46.05
68855;BME280;55859;55.710;12.464;2022-07-29T11:20:46;102113.84;;;22.77;45.80
68855;BME280;55859;55.710;12.464;2022-07-29T11:23:32;102118.72;;;22.95;46.76
68855;BME280;55859;55.710;12.464;2022-07-29T11:31:36;102119.59;;;23.23;42.73
68855;BME280;55859;55.710;12.464;2022-07-29T11:47:20;102113.00;;;23.47;46.17
68855;BME280;55859;55.710;12.464;2022-07-29T11:49:47;102109.59;;;23.60;44.68
68855;BME280;55859;55.710;12.464;2022-07-29T11:52:13;102112.13;;;23.68;44.16
68855;BME280;55859;55.710;12.464;2022-07-29T11:54:41;102107.78;;;23.67;43.93
68855;BME280;55859;55.710;12.464;2022-07-29T11:57:08;102104.69;;;23.63;42.97
68855;BME280;55859;55.710;12.464;2022-07-29T11:59:41;102104.22;;;23.94;43.83
68855;BME280;55859;55.710;12.464;2022-07-29T12:02:07;102101.94;;;23.91;42.24
68855;BME280;55859;55.710;12.464;2022-07-29T12:04:33;102101.75;;;23.58;40.72
68855;BME280;55859;55.710;12.464;2022-07-29T12:06:59;102102.16;;;23.55;43.11
68855;BME280;55859;55.710;12.464;2022-07-29T12:09:25;102101.53;;;23.87;43.52
68855;BME280;55859;55.710;12.464;2022-07-29T12:11:56;102100.88;;;23.85;41.78
68855;BME280;55859;55.710;12.464;2022-07-29T12:16:51;102102.03;;;24.11;43.65
68855;BME280;55859;55.710;12.464;2022-07-29T12:19:16;102103.16;;;24.23;41.43
68855;BME280;55859;55.710;12.464;2022-07-29T12:21:49;102095.09;;;24.16;40.67
68855;BME280;55859;55.710;12.464;2022-07-29T12:24:15;102095.28;;;24.21;40.27
68855;BME280;55859;55.710;12.464;2022-07-29T12:26:54;102083.78;;;23.86;40.85
68855;BME280;55859;55.710;12.464;2022-07-29T12:29:20;102089.59;;;23.97;43.20
68855;BME280;55859;55.710;12.464;2022-07-29T12:31:51;102091.88;;;24.41;42.69
68855;BME280;55859;55.710;12.464;2022-07-29T12:34:20;102083.59;;;24.42;43.07
68855;BME280;55859;55.710;12.464;2022-07-29T12:36:46;102079.31;;;24.61;41.13
68855;BME280;55859;55.710;12.464;2022-07-29T12:39:13;102077.47;;;24.74;42.13
68855;BME280;55859;55.710;12.464;2022-07-29T12:41:39;102078.13;;;24.76;42.06
68855;BME280;55859;55.710;12.464;2022-07-29T12:44:05;102073.97;;;24.74;43.33
68855;BME280;55859;55.710;12.464;2022-07-29T12:46:30;102072.75;;;24.70;42.74
68855;BME280;55859;55.710;12.464;2022-07-29T12:48:56;102069.44;;;24.68;43.22
68855;BME280;55859;55.710;12.464;2022-07-29T12:51:39;102061.97;;;24.50;45.07
68855;BME280;55859;55.710;12.464;2022-07-29T12:54:12;102062.22;;;24.62;45.01
68855;BME280;55859;55.710;12.464;2022-07-29T12:56:42;102067.19;;;24.91;45.24
68855;BME280;55859;55.710;12.464;2022-07-29T12:59:19;102064.50;;;25.17;44.10
68855;BME280;55859;55.710;12.464;2022-07-29T13:01:46;102068.41;;;24.82;44.54
68855;BME280;55859;55.710;12.464;2022-07-29T13:04:30;102061.84;;;25.17;44.44
68855;BME280;55859;55.710;12.464;2022-07-29T13:07:00;102055.41;;;25.31;43.89
68855;BME280;55859;55.710;12.464;2022-07-29T13:09:37;102061.97;;;25.62;44.27
68855;BME280;55859;55.710;12.464;2022-07-29T13:12:06;102062.22;;;25.54;44.53
68855;BME280;55859;55.710;12.464;2022-07-29T13:14:34;102062.41;;;25.52;44.56
68855;BME280;55859;55.710;12.464;2022-07-29T13:19:40;102060.13;;;25.49;44.66
68855;BME280;55859;55.710;12.464;2022-07-29T13:22:08;102058.72;;;25.53;44.68
68855;BME280;55859;55.710;12.464;2022-07-29T13:24:34;102051.06;;;25.30;45.76
68855;BME280;55859;55.710;12.464;2022-07-29T13:27:09;102062.22;;;25.54;46.49
68855;BME280;55859;55.710;12.464;2022-07-29T13:29:35;102055.81;;;25.42;46.53
68855;BME280;55859;55.710;12.464;2022-07-29T13:32:02;102053.97;;;25.35;46.83
68855;BME280;55859;55.710;12.464;2022-07-29T13:34:27;102058.91;;;25.52;46.55
68855;BME280;55859;55.710;12.464;2022-07-29T13:36:53;102062.44;;;25.32;46.28
68855;BME280;55859;55.710;12.464;2022-07-29T13:39:18;102061.41;;;25.40;47.18
68855;BME280;55859;55.710;12.464;2022-07-29T13:41:43;102069.84;;;25.37;48.11
68855;BME280;55859;55.710;12.464;2022-07-29T13:44:09;102071.28;;;25.46;47.81
68855;BME280;55859;55.710;12.464;2022-07-29T13:46:34;102057.88;;;25.53;46.71
68855;BME280;55859;55.710;12.464;2022-07-29T13:49:00;102059.34;;;25.35;46.78
68855;BME280;55859;55.710;12.464;2022-07-29T13:51:25;102062.47;;;25.26;47.33
68855;BME280;55859;55.710;12.464;2022-07-29T13:53:51;102053.19;;;24.89;47.05
68855;BME280;55859;55.710;12.464;2022-07-29T13:56:16;102055.84;;;25.02;46.17
68855;BME280;55859;55.710;12.464;2022-07-29T13:58:41;102058.13;;;24.99;46.68